Time;durP1;ratioP1;P1;durP2;ratioP2;P2;SDS_P1;SDS_P2;PMS_P1;PMS_P2;Temp;Humidity;BMP_temperature;BMP_pressure;BME280_temperature;BME280_humidity;BME280_pressure;Samples;Min_cycle;Max_cycle;Signal;HPM_P1;HPM_P2
2023/04/03 00:01:10;;;;;;;1.90;1.70;;;;;;;10.36;nan;-24106.34;4992500;28;20262;-70
2023/04/03 00:03:36;;;;;;;2.27;1.83;;;;;;;10.34;nan;-24105.78;4992741;28;20184;-70
2023/04/03 00:06:02;;;;;;;7.20;2.13;;;;;;;10.35;nan;-24106.19;4992574;28;20602;-69
2023/04/03 00:08:30;;;;;;;2.10;1.80;;;;;;;10.20;nan;-24101.97;4992076;28;20219;-70
2023/04/03 00:10:56;;;;;;;6.97;2.20;;;;;;;10.02;nan;-24096.88;4992741;28;20179;-69
2023/04/03 00:13:21;;;;;;;2.05;1.70;;;;;;;10.19;nan;-24101.81;4991753;28;20564;-70
2023/04/03 00:15:47;;;;;;;2.30;1.90;;;;;;;9.88;nan;-24092.91;4992509;28;20246;-70
2023/04/03 00:18:12;;;;;;;1.70;1.60;;;;;;;10.29;nan;-24104.50;4992587;28;20207;-70
2023/04/03 00:20:38;;;;;;;1.97;1.73;;;;;;;10.33;nan;-24105.63;4992398;28;20193;-69
2023/04/03 00:23:03;;;;;;;2.50;1.77;;;;;;;10.31;nan;-24105.06;4985343;28;20323;-72
2023/04/03 00:25:29;;;;;;;2.30;1.87;;;;;;;10.11;nan;-24099.41;4991977;28;20185;-72
2023/04/03 00:27:54;;;;;;;2.20;1.97;;;;;;;10.21;nan;-24102.09;4991731;28;20546;-73
2023/04/03 00:30:21;;;;;;;3.57;1.80;;;;;;;9.90;nan;-24093.63;4992274;28;20636;-69
2023/04/03 00:32:51;;;;;;;2.30;2.10;;;;;;;9.95;nan;-24094.91;4991922;28;20256;-73
2023/04/03 00:35:17;;;;;;;1.90;1.70;;;;;;;10.06;nan;-24098.16;4991959;28;20180;-71
2023/04/03 00:37:44;;;;;;;1.93;1.73;;;;;;;10.13;nan;-24099.97;4991861;28;20614;-70
2023/04/03 00:40:11;;;;;;;1.90;1.70;;;;;;;10.17;nan;-24101.13;4992196;28;20661;-71
2023/04/03 00:42:38;;;;;;;1.77;1.60;;;;;;;9.70;nan;-24088.13;4991874;28;20290;-68
2023/04/03 00:45:04;;;;;;;2.27;1.80;;;;;;;10.10;nan;-24099.28;4992152;28;20260;-72
2023/04/03 00:47:30;;;;;;;2.27;1.80;;;;;;;10.07;nan;-24098.28;4990281;28;20251;-72
2023/04/03 00:49:57;;;;;;;1.97;1.80;;;;;;;9.94;nan;-24094.75;4991754;28;20244;-70
2023/04/03 00:52:29;;;;;;;1.83;1.73;;;;;;;9.86;nan;-24092.50;4991334;28;20179;-71
2023/04/03 00:54:58;;;;;;;2.80;1.73;;;;;;;9.64;nan;-24086.44;4991538;28;20164;-71
2023/04/03 00:57:24;;;;;;;2.37;2.00;;;;;;;9.47;nan;-24081.63;4991529;28;20224;-70
2023/04/03 00:59:55;;;;;;;1.90;1.70;;;;;;;9.67;nan;-24087.13;4985085;28;20282;-71
2023/04/03 01:02:20;;;;;;;1.93;1.60;;;;;;;9.52;nan;-24083.03;4991342;28;20215;-71
2023/04/03 01:04:47;;;;;;;2.50;2.00;;;;;;;9.75;nan;-24089.53;4991244;28;20178;-71
2023/04/03 01:07:15;;;;;;;2.43;1.83;;;;;;;10.11;nan;-24099.41;4991614;28;20180;-72
2023/04/03 01:09:41;;;;;;;1.63;1.53;;;;;;;9.90;nan;-24093.63;5006622;28;20180;-72
2023/04/03 01:12:16;;;;;;;2.37;1.90;;;;;;;9.95;nan;-24094.91;4991268;28;20215;-71
2023/04/03 01:14:43;;;;;;;2.33;1.70;;;;;;;9.84;nan;-24091.94;4991355;28;20172;-72
2023/04/03 01:17:43;;;;;;;2.37;1.83;;;;;;;9.88;nan;-24092.91;4991702;28;20173;-70
2023/04/03 01:20:11;;;;;;;2.10;1.90;;;;;;;9.91;nan;-24093.91;5000756;28;20212;-70
2023/04/03 01:23:12;;;;;;;2.13;1.70;;;;;;;9.95;nan;-24094.91;4991548;28;20216;-69
2023/04/03 01:25:43;;;;;;;1.53;1.40;;;;;;;9.97;nan;-24095.47;4992345;28;20215;-69
2023/04/03 01:28:15;;;;;;;2.20;1.87;;;;;;;9.89;nan;-24093.22;4991663;28;20239;-70
2023/04/03 01:30:43;;;;;;;1.83;1.63;;;;;;;10.00;nan;-24096.44;4984929;28;20535;-70
2023/04/03 01:33:08;;;;;;;2.10;1.90;;;;;;;10.01;nan;-24096.59;4990707;28;20189;-70
2023/04/03 01:35:34;;;;;;;5.27;1.83;;;;;;;9.93;nan;-24094.34;4991584;28;20640;-69
2023/04/03 01:37:59;;;;;;;2.13;1.73;;;;;;;9.89;nan;-24093.22;4992764;28;20365;-71
2023/04/03 01:40:25;;;;;;;2.40;1.90;;;;;;;10.04;nan;-24097.44;4995102;28;20192;-69
2023/04/03 01:42:51;;;;;;;2.80;1.80;;;;;;;9.92;nan;-24094.19;4995113;28;20173;-69
2023/04/03 01:45:17;;;;;;;1.80;1.70;;;;;;;9.67;nan;-24087.28;4994929;28;20187;-69
2023/04/03 01:47:42;;;;;;;2.23;1.80;;;;;;;9.99;nan;-24096.03;4995229;28;20168;-71
2023/04/03 01:50:08;;;;;;;4.37;2.07;;;;;;;9.91;nan;-24093.91;4994913;28;20175;-69
2023/04/03 01:52:33;;;;;;;3.53;2.00;;;;;;;9.94;nan;-24094.63;4994845;28;20165;-69
2023/04/03 01:54:59;;;;;;;2.53;1.70;;;;;;;9.56;nan;-24084.16;4994735;28;20173;-69
2023/04/03 01:57:25;;;;;;;2.43;1.80;;;;;;;9.20;nan;-24074.00;4994616;28;20256;-70
2023/04/03 01:59:51;;;;;;;3.77;2.00;;;;;;;9.72;nan;-24088.69;4994759;28;20200;-70
2023/04/03 02:02:16;;;;;;;2.17;1.70;;;;;;;9.42;nan;-24080.06;4994387;28;20254;-71
2023/04/03 02:04:42;;;;;;;2.00;1.80;;;;;;;9.41;nan;-24079.91;4993146;28;20275;-72
2023/04/03 02:07:07;;;;;;;2.03;1.70;;;;;;;9.71;nan;-24088.41;4994959;28;20235;-71
2023/04/03 02:09:33;;;;;;;3.30;2.00;;;;;;;9.41;nan;-24079.91;4994312;28;20180;-69
2023/04/03 02:11:58;;;;;;;2.20;2.00;;;;;;;9.32;nan;-24077.38;4988244;28;20653;-71
2023/04/03 02:14:24;;;;;;;1.87;1.77;;;;;;;9.54;nan;-24083.47;4994757;28;20743;-70
2023/04/03 02:16:49;;;;;;;7.93;2.00;;;;;;;9.52;nan;-24083.03;4994452;28;20181;-72
2023/04/03 02:19:15;;;;;;;2.77;1.77;;;;;;;9.56;nan;-24084.16;4995017;28;20188;-71
2023/04/03 02:21:41;;;;;;;2.00;1.80;;;;;;;9.16;nan;-24073.00;4994229;28;20291;-69
2023/04/03 02:24:07;;;;;;;2.10;1.90;;;;;;;9.41;nan;-24079.91;4993974;28;20176;-70
2023/04/03 02:26:32;;;;;;;5.13;2.23;;;;;;;8.91;nan;-24065.94;4994502;28;20585;-69
2023/04/03 02:28:58;;;;;;;4.50;2.00;;;;;;;9.00;nan;-24068.34;4994345;28;20644;-69
2023/04/03 02:31:23;;;;;;;4.77;1.77;;;;;;;8.97;nan;-24067.47;4994008;28;20189;-70
2023/04/03 02:33:49;;;;;;;2.57;1.97;;;;;;;9.16;nan;-24072.84;4994055;28;20203;-71
2023/04/03 02:36:15;;;;;;;2.40;1.97;;;;;;;8.92;nan;-24066.22;4993944;28;20680;-70
2023/04/03 02:38:40;;;;;;;2.90;1.80;;;;;;;9.16;nan;-24072.84;4994150;28;20189;-69
2023/04/03 02:41:10;;;;;;;2.80;2.13;;;;;;;9.06;nan;-24070.03;4993965;28;20564;-69
2023/04/03 02:43:37;;;;;;;2.23;1.80;;;;;;;8.75;nan;-24061.41;4994071;28;20645;-71
2023/04/03 02:46:03;;;;;;;2.63;2.00;;;;;;;8.81;nan;-24063.25;4993645;28;20177;-70
2023/04/03 02:48:28;;;;;;;2.57;1.90;;;;;;;8.55;nan;-24055.75;4993699;28;20183;-72
2023/04/03 02:50:54;;;;;;;2.30;2.10;;;;;;;8.82;nan;-24063.38;4993111;28;20181;-71
2023/04/03 02:53:19;;;;;;;5.50;2.47;;;;;;;8.48;nan;-24053.91;4991066;28;20535;-70
2023/04/03 02:55:45;;;;;;;2.27;2.00;;;;;;;8.69;nan;-24059.69;4992176;28;20307;-71
2023/04/03 02:58:11;;;;;;;4.27;2.20;;;;;;;8.45;nan;-24052.91;4993546;28;20324;-71
2023/04/03 03:00:37;;;;;;;2.83;2.20;;;;;;;8.57;nan;-24056.44;4993377;28;20588;-69
2023/04/03 03:03:03;;;;;;;2.87;1.90;;;;;;;8.60;nan;-24057.28;4993696;28;20177;-71
2023/04/03 03:05:28;;;;;;;2.17;1.90;;;;;;;8.28;nan;-24048.38;4993687;28;20173;-71
2023/04/03 03:07:54;;;;;;;3.33;2.47;;;;;;;8.39;nan;-24051.34;4993504;28;20169;-71
2023/04/03 03:10:20;;;;;;;4.30;1.90;;;;;;;8.31;nan;-24049.09;4993758;28;20173;-70
2023/04/03 03:12:45;;;;;;;2.47;2.27;;;;;;;8.23;nan;-24046.97;4993395;28;20176;-70
2023/04/03 03:15:11;;;;;;;2.43;2.10;;;;;;;8.45;nan;-24053.06;4993961;28;20200;-69
2023/04/03 03:17:36;;;;;;;2.80;1.80;;;;;;;8.10;nan;-24043.13;4993349;28;20204;-69
2023/04/03 03:20:06;;;;;;;6.50;2.13;;;;;;;8.19;nan;-24045.69;4993613;28;20258;-71
2023/04/03 03:22:32;;;;;;;2.90;2.17;;;;;;;8.36;nan;-24050.50;4993001;28;20236;-70
2023/04/03 03:24:57;;;;;;;4.73;2.40;;;;;;;8.14;nan;-24044.28;4993330;28;20168;-69
2023/04/03 03:27:23;;;;;;;3.70;2.10;;;;;;;8.48;nan;-24053.91;4991030;28;20193;-70
2023/04/03 03:29:49;;;;;;;2.73;2.23;;;;;;;8.47;nan;-24053.63;4989179;28;20176;-71
2023/04/03 03:32:14;;;;;;;2.60;2.23;;;;;;;8.03;nan;-24041.16;4993213;28;20203;-72
2023/04/03 03:34:40;;;;;;;2.50;2.17;;;;;;;8.04;nan;-24041.44;4992764;28;20648;-69
2023/04/03 03:37:05;;;;;;;2.93;1.90;;;;;;;7.97;nan;-24039.72;4986602;28;20278;-70
2023/04/03 03:39:31;;;;;;;2.27;2.07;;;;;;;8.04;nan;-24041.56;4992805;28;20260;-70
2023/04/03 03:41:56;;;;;;;3.20;2.30;;;;;;;8.32;nan;-24049.50;4993485;28;20683;-69
2023/04/03 03:44:22;;;;;;;2.47;1.87;;;;;;;7.85;nan;-24036.34;4993498;28;20187;-68
2023/04/03 03:46:47;;;;;;;2.40;2.07;;;;;;;7.90;nan;-24037.75;4993014;28;20554;-69
2023/04/03 03:49:12;;;;;;;2.73;2.10;;;;;;;8.04;nan;-24041.56;4993134;28;20200;-70
2023/04/03 03:51:39;;;;;;;2.53;1.93;;;;;;;8.13;nan;-24044.00;4992928;28;20185;-69
2023/04/03 03:54:06;;;;;;;5.33;2.63;;;;;;;8.10;nan;-24043.28;4992483;28;20232;-71
2023/04/03 03:56:31;;;;;;;2.60;2.30;;;;;;;7.66;nan;-24030.81;4992242;28;20220;-70
2023/04/03 03:58:59;;;;;;;3.47;2.43;;;;;;;7.50;nan;-24026.56;4992871;28;20260;-72
2023/04/03 04:01:25;;;;;;;3.67;2.20;;;;;;;7.80;nan;-24034.91;4993396;28;20598;-68
2023/04/03 04:03:50;;;;;;;5.10;2.40;;;;;;;7.82;nan;-24035.34;4987628;28;20213;-70
2023/04/03 04:06:16;;;;;;;2.80;2.43;;;;;;;7.93;nan;-24038.47;4991779;28;20189;-68
2023/04/03 04:08:42;;;;;;;3.37;2.70;;;;;;;7.89;nan;-24037.47;4986353;28;20189;-71
2023/04/03 04:11:08;;;;;;;3.03;2.33;;;;;;;7.80;nan;-24034.78;4992988;28;20640;-71
2023/04/03 04:13:33;;;;;;;3.60;2.60;;;;;;;7.62;nan;-24029.81;4992422;28;20200;-73
2023/04/03 04:15:59;;;;;;;3.00;2.47;;;;;;;6.79;nan;-24006.44;5024788;28;20200;-69
2023/04/03 04:18:24;;;;;;;6.10;2.50;;;;;;;7.94;nan;-24038.88;4991670;28;20177;-73
2023/04/03 04:20:50;;;;;;;2.90;2.33;;;;;;;7.63;nan;-24030.09;4991552;28;20205;-72
2023/04/03 04:23:17;;;;;;;3.23;2.47;;;;;;;8.02;nan;-24040.88;4991083;28;20572;-70
2023/04/03 04:25:45;;;;;;;6.03;2.50;;;;;;;7.96;nan;-24039.31;4991692;28;20199;-70
2023/04/03 04:28:10;;;;;;;6.47;3.00;;;;;;;8.17;nan;-24045.13;4992587;28;20181;-69
2023/04/03 04:30:36;;;;;;;4.27;3.10;;;;;;;8.38;nan;-24051.22;4991924;28;20685;-72
2023/04/03 04:33:01;;;;;;;5.90;3.10;;;;;;;8.31;nan;-24049.22;4991706;28;20184;-69
2023/04/03 04:35:27;;;;;;;5.13;2.70;;;;;;;8.46;nan;-24053.19;4991778;28;20183;-72
2023/04/03 04:37:52;;;;;;;3.43;2.93;;;;;;;8.47;nan;-24053.47;4992199;28;20169;-72
2023/04/03 04:40:18;;;;;;;3.63;2.63;;;;;;;8.65;nan;-24058.56;4985545;28;20235;-70
2023/04/03 04:42:43;;;;;;;4.10;2.73;;;;;;;8.94;nan;-24066.63;4991382;28;20204;-70
2023/04/03 04:45:09;;;;;;;5.37;3.53;;;;;;;8.75;nan;-24061.53;4990280;28;20598;-68
2023/04/03 04:47:35;;;;;;;4.73;3.10;;;;;;;9.26;nan;-24075.81;4991137;28;20173;-75
2023/04/03 04:50:00;;;;;;;5.43;3.13;;;;;;;9.07;nan;-24070.31;4991097;28;20634;-73
2023/04/03 04:52:26;;;;;;;5.13;3.33;;;;;;;9.08;nan;-24070.59;4990788;28;20181;-71
2023/04/03 04:54:51;;;;;;;5.40;3.50;;;;;;;9.29;nan;-24076.53;4992382;28;20212;-73
2023/04/03 04:57:17;;;;;;;8.93;4.07;;;;;;;9.36;nan;-24078.50;4992051;28;20213;-71
2023/04/03 04:59:42;;;;;;;5.33;3.57;;;;;;;9.46;nan;-24081.19;4991951;28;20583;-74
2023/04/03 05:02:07;;;;;;;4.40;3.10;;;;;;;9.20;nan;-24074.13;4991649;28;20295;-71
2023/04/03 05:04:33;;;;;;;7.13;3.90;;;;;;;9.55;nan;-24083.88;4991851;28;20227;-71
2023/04/03 05:06:59;;;;;;;7.00;3.40;;;;;;;9.22;nan;-24074.69;4980111;28;20667;-73
2023/04/03 05:09:24;;;;;;;4.23;3.13;;;;;;;9.38;nan;-24079.06;4981001;28;20185;-73
2023/04/03 05:11:50;;;;;;;3.47;3.17;;;;;;;9.32;nan;-24077.38;4980922;28;20480;-71
2023/04/03 05:14:16;;;;;;;5.90;3.70;;;;;;;9.19;nan;-24073.72;4984955;28;20206;-74
2023/04/03 05:16:41;;;;;;;11.30;3.57;;;;;;;9.10;nan;-24071.31;4984754;28;20188;-71
2023/04/03 05:19:07;;;;;;;5.43;4.10;;;;;;;9.58;nan;-24084.72;4981929;28;20346;-74
2023/04/03 05:21:32;;;;;;;8.80;4.60;;;;;;;9.61;nan;-24085.44;4986114;28;20299;-74
2023/04/03 05:24:02;;;;;;;10.73;5.23;;;;;;;9.46;nan;-24081.19;4988480;28;20192;-70
2023/04/03 05:26:28;;;;;;;12.07;6.17;;;;;;;9.92;nan;-24094.19;4988856;28;20872;-72
2023/04/03 05:28:53;;;;;;;13.63;7.23;;;;;;;10.04;nan;-24097.44;4994389;28;20230;-74
2023/04/03 05:31:19;;;;;;;15.47;7.27;;;;;;;9.95;nan;-24095.03;4997636;28;20193;-72
2023/04/03 05:33:45;;;;;;;13.10;7.30;;;;;;;10.01;nan;-24096.72;4984677;28;20213;-69
2023/04/03 05:36:12;;;;;;;11.70;6.23;;;;;;;10.11;nan;-24099.41;4987361;28;20251;-73
2023/04/03 05:38:38;;;;;;;15.80;6.13;;;;;;;10.28;nan;-24104.22;4991244;28;20245;-74
2023/04/03 05:41:03;;;;;;;8.90;4.22;;;;;;;10.33;nan;-24105.50;4992394;28;20200;-74
2023/04/03 05:43:29;;;;;;;6.90;4.45;;;;;;;10.32;nan;-24105.34;4986149;28;20188;-71
2023/04/03 05:45:54;;;;;;;8.93;3.78;;;;;;;10.11;nan;-24099.56;4979358;28;20242;-71
2023/04/03 05:48:20;;;;;;;5.30;3.63;;;;;;;10.52;nan;-24111.00;4981446;28;20661;-71
2023/04/03 05:50:46;;;;;;;4.68;3.47;;;;;;;10.50;nan;-24110.28;4984583;28;20208;-72
2023/04/03 05:53:18;;;;;;;4.00;3.00;;;;;;;10.75;nan;-24117.19;4986845;28;20258;-74
2023/04/03 05:55:44;;;;;;;9.85;3.30;;;;;;;11.01;nan;-24124.69;5001815;28;20334;-72
2023/04/03 05:58:10;;;;;;;5.05;3.15;;;;;;;11.04;nan;-24125.38;4994269;28;20247;-75
2023/04/03 06:00:36;;;;;;;6.78;3.67;;;;;;;10.87;nan;-24120.59;4993977;28;20712;-74
2023/04/03 06:03:01;;;;;;;4.70;3.33;;;;;;;9.81;nan;-24091.09;4994569;28;20180;-74
2023/04/03 06:05:26;;;;;;;5.30;3.20;;;;;;;10.66;nan;-24114.66;4994226;28;20699;-72
2023/04/03 06:07:52;;;;;;;5.15;2.92;;;;;;;10.68;nan;-24115.38;4994427;28;20173;-74
2023/04/03 06:10:18;;;;;;;5.63;3.00;;;;;;;11.12;nan;-24127.50;4994333;28;20177;-72
2023/04/03 06:12:43;;;;;;;12.32;2.88;;;;;;;10.98;nan;-24123.84;4994140;28;20161;-71
2023/04/03 06:15:10;;;;;;;7.60;3.38;;;;;;;10.85;nan;-24120.16;4994345;28;20315;-71
2023/04/03 06:17:37;;;;;;;4.72;2.80;;;;;;;11.11;nan;-24127.22;4994541;28;20188;-70
2023/04/03 06:20:03;;;;;;;6.25;3.53;;;;;;;10.77;nan;-24117.91;4993707;28;20189;-72
2023/04/03 06:22:29;;;;;;;4.60;3.50;;;;;;;11.12;nan;-24127.63;4993980;28;20207;-73
2023/04/03 06:24:56;;;;;;;3.88;3.03;;;;;;;11.29;nan;-24132.44;4994089;28;20177;-75
2023/04/03 06:27:22;;;;;;;6.15;3.10;;;;;;;11.22;nan;-24130.47;4988057;28;20181;-72
2023/04/03 06:29:48;;;;;;;4.38;2.75;;;;;;;11.30;nan;-24132.72;4992094;28;20758;-71
2023/04/03 06:32:14;;;;;;;4.60;2.72;;;;;;;11.20;nan;-24129.88;4993437;28;20189;-72
2023/04/03 06:34:41;;;;;;;4.38;2.60;;;;;;;11.64;nan;-24142.00;4994055;28;20203;-74
2023/04/03 06:37:10;;;;;;;4.05;3.10;;;;;;;11.78;nan;-24145.97;4993941;28;20188;-70
2023/04/03 06:39:35;;;;;;;3.90;3.13;;;;;;;11.29;nan;-24132.44;4994125;28;20242;-72
2023/04/03 06:42:01;;;;;;;5.20;2.88;;;;;;;11.97;nan;-24151.16;4992240;28;20212;-74
2023/04/03 06:44:26;;;;;;;4.47;2.97;;;;;;;11.91;nan;-24149.63;4989131;28;20184;-71
2023/04/03 06:46:54;;;;;;;3.03;2.70;;;;;;;12.25;nan;-24159.06;4993841;28;20239;-73
2023/04/03 06:49:19;;;;;;;6.22;2.72;;;;;;;12.85;nan;-24175.94;4994138;28;20227;-73
2023/04/03 06:51:44;;;;;;;5.35;2.92;;;;;;;13.02;nan;-24180.44;4993966;28;20617;-74
2023/04/03 06:54:10;;;;;;;3.97;2.90;;;;;;;13.58;nan;-24196.03;4993805;28;20648;-74
2023/04/03 06:56:36;;;;;;;6.07;2.92;;;;;;;13.30;nan;-24188.16;4993825;28;20712;-73
2023/04/03 06:59:02;;;;;;;5.10;3.28;;;;;;;13.76;nan;-24200.94;4992967;28;20168;-72
2023/04/03 07:01:29;;;;;;;3.95;2.70;;;;;;;13.82;nan;-24202.78;4993263;28;20196;-72
2023/04/03 07:03:56;;;;;;;4.70;2.80;;;;;;;13.85;nan;-24203.47;4993584;28;20204;-71
2023/04/03 07:06:22;;;;;;;4.82;2.90;;;;;;;13.64;nan;-24197.72;4993403;28;20315;-71
2023/04/03 07:08:48;;;;;;;3.78;2.78;;;;;;;13.41;nan;-24191.25;4993455;28;20176;-69
2023/04/03 07:11:15;;;;;;;8.38;3.58;;;;;;;13.61;nan;-24197.00;4993446;28;20267;-74
2023/04/03 07:13:40;;;;;;;3.65;2.70;;;;;;;14.18;nan;-24212.59;4993367;28;20199;-73
2023/04/03 07:16:07;;;;;;;3.92;2.75;;;;;;;14.30;nan;-24216.09;4993550;28;20169;-73
2023/04/03 07:18:33;;;;;;;3.50;2.70;;;;;;;14.29;nan;-24215.69;4993294;28;20756;-73
2023/04/03 07:20:58;;;;;;;5.55;2.95;;;;;;;14.38;nan;-24218.22;4993610;28;20193;-71
2023/04/03 07:23:24;;;;;;;2.58;2.20;;;;;;;14.37;nan;-24217.94;4986693;28;20703;-71
2023/04/03 07:25:50;;;;;;;3.50;2.70;;;;;;;14.60;nan;-24224.38;4993364;28;20181;-72
2023/04/03 07:28:19;;;;;;;3.92;2.90;;;;;;;14.91;nan;-24232.94;4992282;28;20203;-71
2023/04/03 07:30:50;;;;;;;3.78;2.90;;;;;;;14.96;nan;-24234.47;4992043;28;20180;-74
2023/04/03 07:33:18;;;;;;;7.35;2.75;;;;;;;14.86;nan;-24231.66;4992850;28;20176;-72
2023/04/03 07:35:43;;;;;;;3.25;2.28;;;;;;;15.04;nan;-24236.56;4991796;28;20177;-71
2023/04/03 07:38:09;;;;;;;5.85;2.67;;;;;;;15.09;nan;-24237.81;4991465;28;20571;-73
2023/04/03 07:40:36;;;;;;;2.85;2.35;;;;;;;15.23;nan;-24241.88;4992429;28;20184;-73
2023/04/03 07:43:02;;;;;;;4.35;2.53;;;;;;;15.06;nan;-24237.00;4992456;28;20172;-73
2023/04/03 07:45:27;;;;;;;5.68;3.10;;;;;;;15.54;nan;-24250.31;4992313;28;20597;-75
2023/04/03 07:47:53;;;;;;;4.18;2.47;;;;;;;15.40;nan;-24246.66;4992860;28;20259;-72
2023/04/03 07:50:19;;;;;;;6.32;3.00;;;;;;;15.33;nan;-24244.56;4992456;28;20183;-71
2023/04/03 07:52:45;;;;;;;3.45;2.63;;;;;;;15.22;nan;-24241.47;4993716;28;20228;-72
2023/04/03 07:55:11;;;;;;;3.92;2.83;;;;;;;15.30;nan;-24243.84;5003506;28;20203;-70
2023/04/03 07:57:37;;;;;;;4.72;2.97;;;;;;;15.09;nan;-24237.97;4996201;28;20192;-72
2023/04/03 08:00:04;;;;;;;6.13;2.80;;;;;;;15.21;nan;-24241.34;4992887;28;20632;-73
2023/04/03 08:02:31;;;;;;;3.10;2.42;;;;;;;15.01;nan;-24235.88;4992121;28;20211;-73
2023/04/03 08:04:57;;;;;;;8.23;2.28;;;;;;;15.06;nan;-24237.00;4992304;28;20180;-70
2023/04/03 08:07:23;;;;;;;3.42;2.30;;;;;;;15.56;nan;-24251.00;4992613;28;20594;-73
2023/04/03 08:09:49;;;;;;;3.38;2.35;;;;;;;15.73;nan;-24255.75;4992278;28;20200;-69
2023/04/03 08:12:14;;;;;;;2.75;2.30;;;;;;;16.28;nan;-24270.84;4992539;28;20168;-73
2023/04/03 08:14:40;;;;;;;3.40;2.38;;;;;;;16.56;nan;-24278.53;4992629;28;20247;-73
2023/04/03 08:17:09;;;;;;;3.13;2.15;;;;;;;16.55;nan;-24278.41;4992328;28;20165;-74
2023/04/03 08:19:34;;;;;;;3.17;2.35;;;;;;;15.89;nan;-24260.09;4992179;28;20255;-73
2023/04/03 08:22:02;;;;;;;4.85;2.60;;;;;;;16.38;nan;-24273.50;4992196;28;20291;-73
2023/04/03 08:24:28;;;;;;;3.45;2.30;;;;;;;16.66;nan;-24281.34;4991922;28;20172;-70
2023/04/03 08:26:53;;;;;;;3.70;2.40;;;;;;;16.26;nan;-24270.44;4992169;28;20183;-72
2023/04/03 08:29:19;;;;;;;2.45;2.25;;;;;;;16.42;nan;-24274.78;4991965;28;20182;-73
2023/04/03 08:31:46;;;;;;;6.35;2.65;;;;;;;16.26;nan;-24270.31;4991990;28;20179;-71
2023/04/03 08:34:11;;;;;;;2.67;2.00;;;;;;;16.52;nan;-24277.56;4992564;28;20180;-69
2023/04/03 08:36:37;;;;;;;3.35;2.35;;;;;;;16.13;nan;-24266.66;4992098;28;20180;-70
2023/04/03 08:39:03;;;;;;;4.68;2.20;;;;;;;15.59;nan;-24251.69;4991970;28;20185;-71
2023/04/03 08:41:39;;;;;;;5.18;2.42;;;;;;;16.03;nan;-24263.88;4991895;28;20215;-73
2023/04/03 08:44:13;;;;;;;3.22;2.25;;;;;;;16.34;nan;-24272.69;4990634;28;20183;-71
2023/04/03 08:47:12;;;;;;;3.28;2.42;;;;;;;16.17;nan;-24267.78;4991828;28;20172;-73
2023/04/03 08:49:50;;;;;;;3.45;2.72;;;;;;;15.66;nan;-24253.66;4992305;28;20208;-73
2023/04/03 08:52:35;;;;;;;4.82;3.40;;;;;;;15.63;nan;-24252.81;4991954;28;20169;-71
2023/04/03 08:55:07;;;;;;;4.90;3.50;;;;;;;15.47;nan;-24248.47;4991460;28;20489;-75
2023/04/03 08:57:38;;;;;;;7.57;4.15;;;;;;;15.22;nan;-24241.59;4989122;28;20236;-75
2023/04/03 09:00:14;;;;;;;12.52;4.95;;;;;;;15.15;nan;-24239.50;4987036;28;20243;-73
2023/04/03 09:02:42;;;;;;;8.50;4.38;;;;;;;15.22;nan;-24241.59;4991703;28;20266;-73
2023/04/03 09:05:15;;;;;;;8.95;4.65;;;;;;;14.92;nan;-24233.22;4985138;28;20212;-72
2023/04/03 09:08:00;;;;;;;7.47;4.20;;;;;;;14.96;nan;-24234.31;4977705;28;20196;-74
2023/04/03 09:10:32;;;;;;;9.65;3.55;;;;;;;15.00;nan;-24235.59;4982544;28;20279;-73
2023/04/03 09:13:07;;;;;;;5.07;3.00;;;;;;;15.51;nan;-24249.59;4976520;28;20204;-71
2023/04/03 09:15:34;;;;;;;7.15;3.33;;;;;;;15.33;nan;-24244.69;4979821;28;20177;-72
2023/04/03 09:18:05;;;;;;;7.03;3.35;;;;;;;15.19;nan;-24240.63;4976040;28;20189;-73
2023/04/03 09:20:37;;;;;;;6.03;3.40;;;;;;;15.36;nan;-24245.38;4982657;28;20302;-72
2023/04/03 09:23:13;;;;;;;4.78;3.25;;;;;;;15.24;nan;-24242.03;4983518;28;20292;-74
2023/04/03 09:25:38;;;;;;;5.05;2.70;;;;;;;15.21;nan;-24241.19;4974298;28;20178;-72
2023/04/03 09:28:09;;;;;;;3.55;2.58;;;;;;;14.94;nan;-24233.75;4977321;28;20186;-74
2023/04/03 09:30:35;;;;;;;4.75;2.60;;;;;;;15.14;nan;-24239.22;4983237;28;20239;-74
2023/04/03 09:33:01;;;;;;;2.92;2.28;;;;;;;15.37;nan;-24245.66;4976204;28;20177;-75
2023/04/03 09:35:31;;;;;;;5.35;2.70;;;;;;;15.17;nan;-24240.22;4980970;28;20685;-73
2023/04/03 09:38:14;;;;;;;5.07;2.83;;;;;;;15.42;nan;-24247.22;4976234;28;20273;-73
2023/04/03 09:41:13;;;;;;;4.90;2.92;;;;;;;15.27;nan;-24242.88;4980810;28;20225;-71
2023/04/03 09:43:39;;;;;;;3.50;2.42;;;;;;;15.18;nan;-24240.50;4981182;28;20633;-72
2023/04/03 09:46:31;;;;;;;3.03;2.45;;;;;;;15.31;nan;-24244.13;4982100;28;20185;-75
2023/04/03 09:49:03;;;;;;;6.85;3.08;;;;;;;14.98;nan;-24234.88;4976889;28;20204;-72
2023/04/03 09:51:30;;;;;;;5.88;3.13;;;;;;;14.55;nan;-24223.13;4990314;28;20181;-75
2023/04/03 09:53:56;;;;;;;4.93;2.78;;;;;;;14.68;nan;-24226.63;4978563;28;20208;-72
2023/04/03 09:56:30;;;;;;;2.70;2.13;;;;;;;14.58;nan;-24223.94;4981626;28;20225;-75
2023/04/03 09:58:58;;;;;;;2.30;2.10;;;;;;;14.93;nan;-24233.63;4990034;28;20173;-74
2023/04/03 10:01:29;;;;;;;2.85;1.95;;;;;;;14.83;nan;-24230.81;4982420;28;20216;-71
2023/04/03 10:04:10;;;;;;;2.33;2.03;;;;;;;14.64;nan;-24225.34;4979391;28;20313;-72
2023/04/03 10:06:46;;;;;;;1.98;1.80;;;;;;;14.26;nan;-24214.97;4981870;28;20263;-73
2023/04/03 10:09:31;;;;;;;3.70;2.30;;;;;;;14.16;nan;-24212.31;4979958;28;20575;-76
2023/04/03 10:12:11;;;;;;;3.13;2.38;;;;;;;13.97;nan;-24206.97;4984337;28;20184;-74
2023/04/03 10:14:55;;;;;;;5.47;2.17;;;;;;;13.99;nan;-24207.41;4986774;28;20195;-73
2023/04/03 10:17:21;;;;;;;3.67;2.35;;;;;;;13.39;nan;-24190.69;4981688;28;20216;-71
2023/04/03 10:19:58;;;;;;;4.30;2.75;;;;;;;13.83;nan;-24203.03;4979916;28;20227;-72
2023/04/03 10:23:02;;;;;;;2.75;1.88;;;;;;;14.12;nan;-24211.19;4985509;28;20770;-74
2023/04/03 10:26:05;;;;;;;4.93;2.35;;;;;;;14.28;nan;-24215.41;4985196;28;20249;-73
2023/04/03 10:28:56;;;;;;;2.30;2.10;;;;;;;14.34;nan;-24217.22;4988124;28;20207;-75
2023/04/03 10:31:37;;;;;;;3.00;1.90;;;;;;;14.00;nan;-24207.81;4984851;28;20196;-75
2023/04/03 10:34:23;;;;;;;4.18;2.25;;;;;;;14.33;nan;-24216.81;4987569;28;20192;-72
2023/04/03 10:37:25;;;;;;;2.63;2.00;;;;;;;14.59;nan;-24224.09;4988806;28;20188;-72
2023/04/03 10:40:00;;;;;;;3.55;2.30;;;;;;;14.67;nan;-24226.19;4990295;28;20203;-72
2023/04/03 10:42:34;;;;;;;4.97;2.58;;;;;;;14.74;nan;-24228.16;4988955;28;20208;-72
2023/04/03 10:45:19;;;;;;;4.50;2.38;;;;;;;14.91;nan;-24233.06;4989150;28;20648;-74
2023/04/03 10:47:44;;;;;;;5.03;2.50;;;;;;;14.75;nan;-24228.56;4989327;28;20176;-72
2023/04/03 10:50:19;;;;;;;3.00;2.20;;;;;;;14.51;nan;-24221.84;5003845;28;20188;-74
2023/04/03 10:52:53;;;;;;;4.90;2.72;;;;;;;14.24;nan;-24214.41;4988069;28;20260;-76
2023/04/03 10:55:41;;;;;;;3.78;2.45;;;;;;;11.92;nan;-24150.03;4987442;28;20184;-74
2023/04/03 10:58:18;;;;;;;2.53;2.33;;;;;;;14.25;nan;-24214.56;4988150;28;20252;-72
2023/04/03 11:00:48;;;;;;;3.28;2.40;;;;;;;14.40;nan;-24218.91;4987956;28;20746;-73
2023/04/03 11:03:25;;;;;;;3.58;2.20;;;;;;;13.85;nan;-24203.47;4984718;28;20272;-73
2023/04/03 11:05:54;;;;;;;6.35;2.85;;;;;;;14.24;nan;-24214.41;4992891;28;20199;-74
2023/04/03 11:08:30;;;;;;;5.38;2.40;;;;;;;14.40;nan;-24218.75;4993335;28;20244;-75
2023/04/03 11:10:59;;;;;;;3.55;2.63;;;;;;;14.25;nan;-24214.69;4993331;28;20238;-73
2023/04/03 11:13:27;;;;;;;4.63;3.10;;;;;;;14.21;nan;-24213.44;4986645;28;20632;-71
2023/04/03 11:15:54;;;;;;;4.05;2.67;;;;;;;14.05;nan;-24209.09;4993559;28;20256;-73
2023/04/03 11:18:28;;;;;;;6.22;2.70;;;;;;;14.07;nan;-24209.63;4987325;28;20188;-73
2023/04/03 11:21:14;;;;;;;6.00;2.55;;;;;;;14.11;nan;-24210.75;4986379;28;20250;-71
2023/04/03 11:23:40;;;;;;;4.50;2.72;;;;;;;13.91;nan;-24205.28;4981670;28;20606;-71
2023/04/03 11:26:17;;;;;;;3.70;2.90;;;;;;;13.81;nan;-24202.50;4986590;28;20579;-72
2023/04/03 11:28:44;;;;;;;3.45;2.60;;;;;;;13.64;nan;-24197.72;4987071;28;20564;-71
2023/04/03 11:31:09;;;;;;;3.88;2.42;;;;;;;13.44;nan;-24192.25;4986484;28;20199;-74
2023/04/03 11:34:12;;;;;;;4.78;2.70;;;;;;;13.47;nan;-24192.94;4986270;28;20260;-71
2023/04/03 11:36:48;;;;;;;2.85;2.30;;;;;;;13.26;nan;-24187.31;4985736;28;20191;-73
2023/04/03 11:39:28;;;;;;;5.82;3.25;;;;;;;13.46;nan;-24192.66;4986880;28;20267;-73
2023/04/03 11:41:54;;;;;;;4.28;3.33;;;;;;;13.24;nan;-24186.75;4986254;28;20208;-72
2023/04/03 11:44:38;;;;;;;3.50;3.03;;;;;;;13.11;nan;-24182.97;4986401;28;20668;-75
2023/04/03 11:47:10;;;;;;;3.80;2.90;;;;;;;13.34;nan;-24189.28;4997678;28;20280;-74
2023/04/03 11:49:55;;;;;;;3.42;2.67;;;;;;;13.33;nan;-24189.16;4992719;28;20180;-73
2023/04/03 11:52:39;;;;;;;4.80;3.30;;;;;;;13.24;nan;-24186.63;4986446;28;20185;-73